Flight Track Log - Related Links

Times and Time Zones

All times are in EDT time to prevent confusion due to time zone crossing. See the N521LL flight status page for this flight to view local times or setup timezone preferences in your user account.


Time Position Orientation Groundspeed Altitude Reporting Facility
EDT Latitude Longitude Course Direction KTS MPH feet Rate Location/Type
Wed 10:28:23 AM 33.6342 -101.8317 177° South 193 222 4,400  Level Fort Worth Center
Wed 10:28:42 AM 33.6153 -101.8306 177° South 188 216 5,200 2,127 Climbing Fort Worth Center
Wed 10:29:42 AM 33.5581 -101.8603 203° Southwest 259 298 7,200 2,380 Climbing Fort Worth Center
Wed 10:30:43 AM 33.4958 -101.9044 211° Southwest 264 304 10,000 3,078 Climbing Fort Worth Center
Wed 10:31:37 AM 33.4439 -101.9564 220° Southwest 253 291 13,100 3,103 Climbing Fort Worth Center
Wed 10:32:39 AM 33.3836 -102.0056 214° Southwest 275 316 16,000 1,918 Climbing Fort Worth Center
Wed 10:33:39 AM 33.3189 -102.0619 216° Southwest 299 344 17,000 500 Climbing Fort Worth Center
Wed 10:34:39 AM 33.2500 -102.1178 214° Southwest 307 353 17,000  Level Fort Worth Center
Wed 10:35:39 AM 33.1897 -102.1717 217° Southwest 290 334 17,000 550 Level Fort Worth Center
Wed 10:36:39 AM 33.1231 -102.2228 213° Southwest 285 328 18,100 1,300 Climbing Fort Worth Center
Wed 10:37:39 AM 33.0625 -102.2739 215° Southwest 280 322 19,600 1,700 Climbing Fort Worth Center
Wed 10:38:39 AM 32.9958 -102.3272 214° Southwest 286 329 21,500 1,650 Climbing Fort Worth Center
Wed 10:39:39 AM 32.9308 -102.3881 218° Southwest 293 337 22,900 1,500 Climbing Fort Worth Center
Wed 10:40:39 AM 32.8725 -102.4367 215° Southwest 293 337 24,500 1,450 Climbing Fort Worth Center
Wed 10:41:39 AM 32.8014 -102.4944 214° Southwest 298 343 25,800 1,150 Climbing Fort Worth Center
Wed 10:42:39 AM 32.7300 -102.5572 216° Southwest 310 357 26,800 1,100 Climbing Fort Worth Center
Wed 10:43:39 AM 32.6564 -102.6169 214° Southwest 320 368 28,000 1,367 Climbing Fort Worth Center
Wed 10:45:39 AM 32.5094 -102.7367 215° Southwest 326 375 30,900 1,433 Climbing Fort Worth Center
Wed 10:46:39 AM 32.4403 -102.7964 216° Southwest 320 368 32,300 1,300 Climbing Fort Worth Center
Wed 10:47:39 AM 32.3711 -102.8489 213° Southwest 315 362 33,500 850 Climbing Fort Worth Center
Wed 10:48:39 AM 32.3017 -102.9086 216° Southwest 315 362 34,000 1,300 Climbing Fort Worth Center
Wed 10:49:39 AM 32.2347 -102.9611 214° Southwest 315 362 36,100 1,920 Climbing Fort Worth Center
Wed 10:49:54 AM 32.2136 -102.9736 207° Southwest 284 327 36,400 701 Climbing Albuquerque Center
Wed 10:50:56 AM 32.1528 -103.0272 217° Southwest 274 315 37,000 400 Climbing Albuquerque Center
Wed 10:51:39 AM 32.1047 -103.0658 214° Southwest 288 331 37,100 732 Climbing Fort Worth Center
Wed 10:52:59 AM 32.0217 -103.1331 214° Southwest 284 327 38,500 972 Climbing Albuquerque Center
Wed 10:54:01 AM 31.9581 -103.1844 214° Southwest 281 323 39,400 726 Climbing Albuquerque Center
Wed 10:55:03 AM 31.8981 -103.2333 215° Southwest 271 312 40,000 290 Climbing Albuquerque Center
Wed 10:56:05 AM 31.8211 -103.2911 213° Southwest 269 310 40,000  Level Albuquerque Center
Wed 10:57:06 AM 31.7575 -103.3461 216° Southwest 274 315 40,000  Level Albuquerque Center
Wed 10:58:08 AM 31.6872 -103.4000 213° Southwest 285 328 40,000  Level Albuquerque Center
Wed 10:59:10 AM 31.6156 -103.4572 214° Southwest 296 341 40,000  Level Albuquerque Center
Wed 11:00:12 AM 31.5422 -103.5156 214° Southwest 307 353 40,000  Level Albuquerque Center
Wed 11:01:14 AM 31.4742 -103.5778 218° Southwest 309 356 40,000  Level Albuquerque Center
Wed 11:02:15 AM 31.4147 -103.6486 225° Southwest 307 353 40,000  Level Albuquerque Center
Wed 11:03:17 AM 31.3489 -103.7150 221° Southwest 310 357 40,000  Level Albuquerque Center
Wed 11:04:19 AM 31.2711 -103.7961 222° Southwest 313 360 40,000  Level Albuquerque Center
Wed 11:05:21 AM 31.2053 -103.8622 221° Southwest 313 360 40,000  Level Albuquerque Center
Wed 11:06:23 AM 31.1386 -103.9314 222° Southwest 317 365 40,000  Level Albuquerque Center
Wed 11:07:24 AM 31.0708 -104.0006 221° Southwest 322 371 40,000  Level Albuquerque Center
Wed 11:08:26 AM 31.0050 -104.0692 222° Southwest 319 367 40,000  Level Albuquerque Center
Wed 11:09:28 AM 30.9356 -104.1386 221° Southwest 326 375 40,000  Level Albuquerque Center
Wed 11:10:30 AM 30.8672 -104.2086 221° Southwest 326 375 40,000  Level Albuquerque Center
Wed 11:11:32 AM 30.7878 -104.2925 222° Southwest 322 371 40,000  Level Albuquerque Center
Wed 11:12:34 AM 30.7189 -104.3583 219° Southwest 320 368 40,000  Level Albuquerque Center
Wed 11:13:36 AM 30.6522 -104.4283 222° Southwest 321 369 40,000  Level Albuquerque Center
Wed 11:14:38 AM 30.5833 -104.4956 220° Southwest 323 372 40,000  Level Albuquerque Center
Wed 11:15:40 AM 30.5158 -104.5636 221° Southwest 320 368 40,000  Level Albuquerque Center
Wed 11:16:42 AM 30.4492 -104.6314 221° Southwest 320 368 40,000  Level Albuquerque Center
Wed 11:17:44 AM 30.3814 -104.6989 221° Southwest 320 368 40,000  Level Albuquerque Center
Wed 11:18:46 AM 30.3019 -104.7811 222° Southwest 318 366 40,000  Level Albuquerque Center
Wed 11:19:48 AM 30.2325 -104.8469 219° Southwest 320 368 40,000  Level Albuquerque Center
Wed 11:20:50 AM 30.1667 -104.9150 222° Southwest 318 366 40,000  Level Albuquerque Center
Wed 11:21:52 AM 30.0978 -104.9797 219° Southwest 320 368 40,000  Level Albuquerque Center
Wed 11:22:53 AM 30.0314 -105.0489 222° Southwest 319 367 40,000  Level Albuquerque Center
Wed 11:23:55 AM 29.9633 -105.1133 219° Southwest 318 366 40,000  Level Albuquerque Center
Wed 11:24:57 AM 29.8836 -105.1939 221° Southwest 316 364 40,000  Level Albuquerque Center
Wed 11:25:59 AM 29.8158 -105.2600 220° Southwest 319 367 40,000  Level Albuquerque Center
Wed 11:27:01 AM 29.7483 -105.3258 220° Southwest 318 366 40,000  Level Albuquerque Center
Wed 11:28:03 AM 29.6828 -105.3967 223° Southwest 321 369 40,000  Level Albuquerque Center
Wed 11:30:00 AM 29.5407 -105.5131 215° Southwest  Level FlightAware Approximate
Wed 11:37:00 AM 29.0425 -105.9504 220° Southwest  Level FlightAware Approximate
Wed 11:38:00 AM 28.9741 -106.0162 220° Southwest  Level FlightAware Approximate
Wed 11:39:00 AM 28.9056 -106.0820 220° Southwest  Level FlightAware Approximate
Wed 11:40:00 AM 28.8371 -106.1477 220° Southwest  Level FlightAware Approximate
Wed 11:41:00 AM 28.7686 -106.2133 220° Southwest  Level FlightAware Approximate
Wed 11:42:00 AM 28.7000 -106.2788 220° Southwest  Level FlightAware Approximate
Wed 11:43:00 AM 28.6314 -106.3442 220° Southwest  Level FlightAware Approximate
Wed 11:44:00 AM 28.5627 -106.4096 220° Southwest  Level FlightAware Approximate
Wed 11:45:00 AM 28.4941 -106.4748 220° Southwest  Level FlightAware Approximate
Wed 11:46:00 AM 28.4254 -106.5400 220° Southwest  Level FlightAware Approximate
Wed 11:47:00 AM 28.3567 -106.6051 220° Southwest  Level FlightAware Approximate
Wed 11:48:00 AM 28.2879 -106.6702 220° Southwest  Level FlightAware Approximate
Wed 11:49:00 AM 28.2191 -106.7351 220° Southwest  Level FlightAware Approximate
Wed 11:50:00 AM 28.1503 -106.7999 220° Southwest  Level FlightAware Approximate
Wed 11:51:00 AM 28.0815 -106.8647 220° Southwest  Level FlightAware Approximate
Wed 11:52:00 AM 28.0126 -106.9294 220° Southwest  Level FlightAware Approximate
Wed 11:53:00 AM 27.9437 -106.9940 220° Southwest  Level FlightAware Approximate
Wed 11:54:00 AM 27.8748 -107.0585 220° Southwest  Level FlightAware Approximate
Wed 11:55:00 AM 27.8058 -107.1230 220° Southwest  Level FlightAware Approximate
Wed 11:56:00 AM 27.7368 -107.1873 220° Southwest  Level FlightAware Approximate
Wed 11:57:00 AM 27.6678 -107.2516 220° Southwest  Level FlightAware Approximate
Wed 11:58:00 AM 27.5988 -107.3158 219° Southwest  Level FlightAware Approximate
Wed 11:59:00 AM 27.5297 -107.3799 219° Southwest  Level FlightAware Approximate
Wed 12:00:00 PM 27.4606 -107.4440 219° Southwest  Level FlightAware Approximate
Wed 12:01:00 PM 27.3913 -107.5077 218° Southwest  Level FlightAware Approximate
Wed 12:02:00 PM 27.3206 -107.5695 218° Southwest  Level FlightAware Approximate
Wed 12:03:00 PM 27.2500 -107.6313 218° Southwest  Level FlightAware Approximate
Wed 12:04:00 PM 27.1794 -107.6931 218° Southwest  Level FlightAware Approximate
Wed 12:05:00 PM 27.1088 -107.7548 218° Southwest  Level FlightAware Approximate
Wed 12:06:00 PM 27.0383 -107.8167 218° Southwest  Level FlightAware Approximate
Wed 12:07:00 PM 26.9678 -107.8784 218° Southwest  Level FlightAware Approximate
Wed 12:08:00 PM 26.8972 -107.9400 218° Southwest  Level FlightAware Approximate
Wed 12:09:00 PM 26.8279 -108.0034 220° Southwest  Level FlightAware Approximate
Wed 12:10:00 PM 26.7595 -108.0681 220° Southwest  Level FlightAware Approximate
Wed 12:11:00 PM 26.6912 -108.1327 220° Southwest  Level FlightAware Approximate
Wed 12:12:00 PM 26.6227 -108.1972 220° Southwest  Level FlightAware Approximate
Wed 12:13:00 PM 26.5541 -108.2612 219° Southwest  Level FlightAware Approximate
Wed 12:14:00 PM 26.4841 -108.3235 219° Southwest  Level FlightAware Approximate
Wed 12:15:00 PM 26.4140 -108.3857 218° Southwest  Level FlightAware Approximate
Wed 12:16:00 PM 26.3437 -108.4473 218° Southwest  Level FlightAware Approximate
Wed 12:17:00 PM 26.2733 -108.5089 218° Southwest  Level FlightAware Approximate
Wed 12:18:00 PM 26.2028 -108.5704 218° Southwest  Level FlightAware Approximate
Wed 12:19:00 PM 26.1324 -108.6319 218° Southwest  Level FlightAware Approximate
Wed 12:20:00 PM 26.0619 -108.6932 218° Southwest  Level FlightAware Approximate
Wed 12:21:00 PM 25.9914 -108.7545 218° Southwest  Level FlightAware Approximate
Wed 12:22:00 PM 25.9209 -108.8157 218° Southwest  Level FlightAware Approximate
Wed 12:23:00 PM 25.8504 -108.8769 218° Southwest  Level FlightAware Approximate
Wed 12:24:00 PM 25.7798 -108.9379 218° Southwest  Level FlightAware Approximate
Wed 12:25:00 PM 25.7092 -108.9989 218° Southwest  Level FlightAware Approximate
Wed 12:26:00 PM 25.6368 -109.0566 204° Southwest  Level FlightAware Approximate
Wed 12:27:00 PM 25.5534 -109.0912 193° South  Level FlightAware Approximate
Wed 12:28:00 PM 25.4663 -109.1139 193° South  Level FlightAware Approximate
Wed 12:29:00 PM 25.3792 -109.1367 193° South  Level FlightAware Approximate
Wed 12:30:00 PM 25.2921 -109.1594 193° South  Level FlightAware Approximate
Wed 12:31:00 PM 25.2050 -109.1820 193° South  Level FlightAware Approximate
Wed 12:32:00 PM 25.1178 -109.2016 194° South  Level FlightAware Approximate
Wed 12:33:00 PM 25.0310 -109.2257 194° South  Level FlightAware Approximate
Wed 12:34:00 PM 24.9443 -109.2498 194° South  Level FlightAware Approximate
Wed 12:35:00 PM 24.8574 -109.2732 193° South  Level FlightAware Approximate
Wed 12:36:00 PM 24.7698 -109.2934 191° South  Level FlightAware Approximate
Wed 12:37:00 PM 24.6820 -109.3122 191° South  Level FlightAware Approximate
Wed 12:38:00 PM 24.5942 -109.3310 191° South  Level FlightAware Approximate
Wed 12:39:00 PM 24.5083 -109.3584 197° South  Level FlightAware Approximate
Wed 12:40:00 PM 24.4227 -109.3869 197° South  Level FlightAware Approximate
Wed 12:41:00 PM 24.3371 -109.4154 197° South  Level FlightAware Approximate
Wed 12:42:00 PM 24.2493 -109.4299 193° South  Level FlightAware Approximate
Wed 12:43:00 PM 24.1622 -109.4527 193° South  Level FlightAware Approximate
Wed 12:44:00 PM 24.0752 -109.4754 193° South  Level FlightAware Approximate
Wed 12:45:00 PM 23.9882 -109.4981 193° South  Level FlightAware Approximate
Wed 12:46:00 PM 23.9007 -109.5167 180° South  Level FlightAware Approximate
Wed 12:47:00 PM 23.8130 -109.5360 191° South  Level FlightAware Approximate
Wed 12:48:00 PM 23.7260 -109.5580 197° South  Level FlightAware Approximate
Wed 12:49:00 PM 23.6404 -109.5865 197° South  Level FlightAware Approximate
Wed 12:50:00 PM 23.5548 -109.6151 197° South  Level FlightAware Approximate
Wed 12:51:00 PM 23.4670 -109.6333 190° South  Level FlightAware Approximate
Wed 12:52:00 PM 23.3793 -109.6520 205° Southwest  Level FlightAware Approximate
Wed 12:53:00 PM 23.2933 -109.6694 200° South  Level FlightAware Approximate
Wed 12:54:00 PM 23.2090 -109.7015 190° South  Level FlightAware Approximate
Wed 12:55:00 PM 23.1518 -109.7210 190° South  Level Estimated
Wed 12:56:00 PM 23.1518 -109.7210 190° South  Level Estimated
Wed 12:57:00 PM 23.1518 -109.7210 190° South  Level Estimated
Wed 12:58:00 PM 23.1518 -109.7210 190° South  Level Estimated
Wed 12:59:00 PM 23.1518 -109.7210 190° South  Level Estimated
Wed 01:00:00 PM 23.1518 -109.7210 190° South  Level Estimated
Wed 01:01:00 PM 23.1518 -109.7210 190° South  Level Estimated
Wed 01:02:00 PM 23.1518 -109.7210 190° South  Level Estimated
Wed 01:03:00 PM 23.1518 -109.7210 190° South  Level Estimated
Wed 01:04:00 PM 23.1518 -109.7210 190° South  Level Estimated
Wed 01:05:00 PM 23.1518 -109.7210 190° South  Level Estimated
Wed 01:06:00 PM 23.1518 -109.7210 190° South  Level Estimated

Login

Don't have an account? Register now (free) for customized features, flight alerts, and more!